Terminal Aerodrome Forecast
Issued by NWS Wakefield, VA

Home | Current Version | Previous Version | Text Only | Print | Product List | Glossary On
Versions: 1 2 3 4 5 6 7 8 9 10 11 12 13 14 15
709
FTUS41 KAKQ 212340
TAFSBY
TAF
KSBY 212340Z 2200/2224 VRB03KT P6SM SCT250
     FM221200 00000KT P6SM BKN100
     FM221700 22007KT P6SM BKN045=

USA.gov is the U.S. government's official web portal to all federal, state and local government web resources and services.